Aeroporto :







RITROVATECI SU...

 
LOGIN :

Iscrizione | Disclaimer

   EN    FR    IT 

 









Sommario :    VFR   VFR Marginale   IFR   IFR Intensivo   IFR Molto Intensivo
Visibilità : 
Base nubi : 
>= 8 km
>= 3000ft
5 / 8 km
1000 / 3000 ft
1500m / 5 km
500 / 1000 ft
800 / 1500m
200 / 500 ft
< 800m
< 200 ft
Simboli :   Temporali  Nebbia  Neve Forte  Precipitazioni Forti  Vento > 20 kt






- Altitudine del aeroporto : 1009 ft
- Codice IATA : ORH


KORH - Worcester Regional

ULTIMO METAR :
  • 171454Z 04008KT 10SM OVC023 M03/M09 A3039 RMK AO2 SLP308 T10331089 50002

METARs OBSOLETI :
  • 171354Z 04008KT 10SM OVC021 M04/M10 A3039 RMK AO2 SLP308 T10441100
  • 171319Z 03011KT 10SM BKN021 M06/M12 A3039 RMK AO2 T10611117
  • 171254Z 03011KT 10SM CLR M07/M12 A3040 RMK AO2 SLP310 T10671122

TAF KORH
Valido dal 17 a 14 ore il 18 a 12 ore UTC


171404Z 1714/1812 04008KT P6SM OVC020
FM171800 06009KT P6SM BKN020 OVC035
FM172100 06010G18KT P6SM BKN020
FM180400 04009KT P6SM OVC010
FM180700 03010KT P6SM VCSH OVC010



MetMap, La meteo Aeronautica in un colpo d'occhio ! - Copyright ORBIFLY Dicembre 2007 - Disclaimer

ORBIFLY MET'MAP TEAM :

Programmazione e sviluppo : Alexandra Zaïnal
Concezione e sviluppo : Baudouin d'Aumeries
Co-Programmazione e sviluppo : Marc-Olivier Méhu
Supporto tecnico e logistico : Manuel Goepfert
Aiuto per la traduzione : Arnaldo La Scala

Contatto : metmap@orbifly.com




FONTI E CREDITI :

   NOAA